sensor_id;sensor_type;location;lat;lon;timestamp;P1;durP1;ratioP1;P2;durP2;ratioP2
20118;SDS011;10220;42.716;23.306;2022-09-21T00:02:01;2.65;;;2.08;;
20118;SDS011;10220;42.716;23.306;2022-09-21T00:04:26;2.43;;;1.40;;
20118;SDS011;10220;42.716;23.306;2022-09-21T00:06:52;1.23;;;1.17;;
20118;SDS011;10220;42.716;23.306;2022-09-21T00:09:17;3.97;;;1.53;;
20118;SDS011;10220;42.716;23.306;2022-09-21T00:11:43;3.03;;;1.63;;
20118;SDS011;10220;42.716;23.306;2022-09-21T00:14:10;1.53;;;1.43;;
20118;SDS011;10220;42.716;23.306;2022-09-21T00:16:37;2.73;;;1.20;;
20118;SDS011;10220;42.716;23.306;2022-09-21T00:19:04;1.10;;;0.97;;
20118;SDS011;10220;42.716;23.306;2022-09-21T00:21:30;1.63;;;1.40;;
20118;SDS011;10220;42.716;23.306;2022-09-21T00:23:57;1.50;;;1.00;;
20118;SDS011;10220;42.716;23.306;2022-09-21T00:26:24;1.47;;;1.37;;
20118;SDS011;10220;42.716;23.306;2022-09-21T00:28:51;1.60;;;0.93;;
20118;SDS011;10220;42.716;23.306;2022-09-21T00:31:18;1.57;;;1.47;;
20118;SDS011;10220;42.716;23.306;2022-09-21T00:33:44;1.60;;;1.47;;
20118;SDS011;10220;42.716;23.306;2022-09-21T00:36:12;1.00;;;0.90;;
20118;SDS011;10220;42.716;23.306;2022-09-21T00:38:40;2.57;;;1.47;;
20118;SDS011;10220;42.716;23.306;2022-09-21T00:41:07;1.40;;;1.27;;
20118;SDS011;10220;42.716;23.306;2022-09-21T00:43:34;2.77;;;0.90;;
20118;SDS011;10220;42.716;23.306;2022-09-21T00:46:03;1.80;;;1.60;;
20118;SDS011;10220;42.716;23.306;2022-09-21T00:48:30;1.87;;;1.63;;
20118;SDS011;10220;42.716;23.306;2022-09-21T00:50:58;1.67;;;1.30;;
20118;SDS011;10220;42.716;23.306;2022-09-21T00:53:28;1.67;;;1.30;;
20118;SDS011;10220;42.716;23.306;2022-09-21T00:55:54;1.53;;;1.27;;
20118;SDS011;10220;42.716;23.306;2022-09-21T00:58:25;1.37;;;1.27;;
20118;SDS011;10220;42.716;23.306;2022-09-21T01:00:55;2.77;;;1.40;;
20118;SDS011;10220;42.716;23.306;2022-09-21T01:03:23;1.73;;;1.53;;
20118;SDS011;10220;42.716;23.306;2022-09-21T01:05:49;1.70;;;1.47;;
20118;SDS011;10220;42.716;23.306;2022-09-21T01:08:14;2.10;;;1.03;;
20118;SDS011;10220;42.716;23.306;2022-09-21T01:11:24;2.10;;;1.23;;
20118;SDS011;10220;42.716;23.306;2022-09-21T01:19:04;1.70;;;1.60;;
20118;SDS011;10220;42.716;23.306;2022-09-21T01:21:56;1.60;;;1.43;;
20118;SDS011;10220;42.716;23.306;2022-09-21T01:30:00;1.40;;;1.30;;
20118;SDS011;10220;42.716;23.306;2022-09-21T01:32:37;1.57;;;1.10;;
20118;SDS011;10220;42.716;23.306;2022-09-21T01:35:11;1.43;;;1.17;;
20118;SDS011;10220;42.716;23.306;2022-09-21T01:37:43;2.93;;;1.43;;
20118;SDS011;10220;42.716;23.306;2022-09-21T01:40:14;1.23;;;1.10;;
20118;SDS011;10220;42.716;23.306;2022-09-21T01:42:43;5.07;;;1.40;;
20118;SDS011;10220;42.716;23.306;2022-09-21T01:45:14;1.03;;;0.93;;
20118;SDS011;10220;42.716;23.306;2022-09-21T01:47:45;1.03;;;1.00;;
20118;SDS011;10220;42.716;23.306;2022-09-21T01:50:13;0.93;;;0.90;;
20118;SDS011;10220;42.716;23.306;2022-09-21T01:52:47;2.03;;;1.60;;
20118;SDS011;10220;42.716;23.306;2022-09-21T01:55:17;2.07;;;1.00;;
20118;SDS011;10220;42.716;23.306;2022-09-21T02:00:23;0.83;;;0.77;;
20118;SDS011;10220;42.716;23.306;2022-09-21T02:02:51;1.73;;;1.03;;
20118;SDS011;10220;42.716;23.306;2022-09-21T02:05:22;1.13;;;1.03;;
20118;SDS011;10220;42.716;23.306;2022-09-21T02:07:50;1.40;;;1.30;;
20118;SDS011;10220;42.716;23.306;2022-09-21T02:10:22;3.77;;;1.60;;
20118;SDS011;10220;42.716;23.306;2022-09-21T02:12:59;1.80;;;1.60;;
20118;SDS011;10220;42.716;23.306;2022-09-21T02:15:41;2.87;;;1.40;;
20118;SDS011;10220;42.716;23.306;2022-09-21T02:18:19;2.17;;;1.17;;
20118;SDS011;10220;42.716;23.306;2022-09-21T02:20:51;4.20;;;1.30;;
20118;SDS011;10220;42.716;23.306;2022-09-21T02:23:30;1.47;;;1.37;;
20118;SDS011;10220;42.716;23.306;2022-09-21T02:26:06;4.17;;;1.80;;
20118;SDS011;10220;42.716;23.306;2022-09-21T02:31:25;2.60;;;1.53;;
20118;SDS011;10220;42.716;23.306;2022-09-21T02:36:46;1.30;;;1.20;;
20118;SDS011;10220;42.716;23.306;2022-09-21T02:39:20;2.43;;;1.67;;
20118;SDS011;10220;42.716;23.306;2022-09-21T02:42:07;3.27;;;1.30;;
20118;SDS011;10220;42.716;23.306;2022-09-21T02:47:17;2.50;;;1.70;;
20118;SDS011;10220;42.716;23.306;2022-09-21T02:49:48;1.40;;;1.30;;
20118;SDS011;10220;42.716;23.306;2022-09-21T02:52:18;1.77;;;1.23;;
20118;SDS011;10220;42.716;23.306;2022-09-21T02:54:47;1.30;;;1.20;;
20118;SDS011;10220;42.716;23.306;2022-09-21T02:57:15;1.90;;;1.40;;
20118;SDS011;10220;42.716;23.306;2022-09-21T02:59:44;2.77;;;1.40;;
20118;SDS011;10220;42.716;23.306;2022-09-21T03:02:10;1.20;;;1.03;;
20118;SDS011;10220;42.716;23.306;2022-09-21T03:04:39;7.40;;;1.43;;
20118;SDS011;10220;42.716;23.306;2022-09-21T03:07:06;1.53;;;1.43;;
20118;SDS011;10220;42.716;23.306;2022-09-21T03:09:32;1.60;;;1.50;;
20118;SDS011;10220;42.716;23.306;2022-09-21T03:11:57;1.33;;;1.07;;
20118;SDS011;10220;42.716;23.306;2022-09-21T03:14:23;1.53;;;0.87;;
20118;SDS011;10220;42.716;23.306;2022-09-21T03:16:48;1.90;;;1.20;;
20118;SDS011;10220;42.716;23.306;2022-09-21T03:19:13;1.20;;;1.03;;
20118;SDS011;10220;42.716;23.306;2022-09-21T03:21:40;1.17;;;1.07;;
20118;SDS011;10220;42.716;23.306;2022-09-21T03:24:05;1.43;;;1.33;;
20118;SDS011;10220;42.716;23.306;2022-09-21T03:26:31;1.40;;;0.97;;
20118;SDS011;10220;42.716;23.306;2022-09-21T03:28:57;1.57;;;0.87;;
20118;SDS011;10220;42.716;23.306;2022-09-21T03:31:23;2.40;;;1.30;;
20118;SDS011;10220;42.716;23.306;2022-09-21T03:33:48;2.10;;;1.10;;
20118;SDS011;10220;42.716;23.306;2022-09-21T03:36:13;1.50;;;1.33;;
20118;SDS011;10220;42.716;23.306;2022-09-21T03:38:39;1.90;;;1.50;;
20118;SDS011;10220;42.716;23.306;2022-09-21T03:41:04;2.30;;;2.10;;
20118;SDS011;10220;42.716;23.306;2022-09-21T03:43:30;2.30;;;0.97;;
20118;SDS011;10220;42.716;23.306;2022-09-21T03:45:56;6.37;;;1.43;;
20118;SDS011;10220;42.716;23.306;2022-09-21T03:48:22;1.33;;;1.00;;
20118;SDS011;10220;42.716;23.306;2022-09-21T03:50:48;1.33;;;1.23;;
20118;SDS011;10220;42.716;23.306;2022-09-21T03:53:14;1.63;;;1.27;;
20118;SDS011;10220;42.716;23.306;2022-09-21T03:55:40;2.00;;;1.43;;
20118;SDS011;10220;42.716;23.306;2022-09-21T03:58:06;2.40;;;2.20;;
20118;SDS011;10220;42.716;23.306;2022-09-21T04:00:32;2.97;;;1.80;;
20118;SDS011;10220;42.716;23.306;2022-09-21T04:02:58;3.00;;;1.57;;
20118;SDS011;10220;42.716;23.306;2022-09-21T04:05:23;4.37;;;2.70;;
20118;SDS011;10220;42.716;23.306;2022-09-21T04:07:49;1.70;;;1.60;;
20118;SDS011;10220;42.716;23.306;2022-09-21T04:10:18;3.73;;;1.80;;
20118;SDS011;10220;42.716;23.306;2022-09-21T04:12:46;2.93;;;2.07;;
20118;SDS011;10220;42.716;23.306;2022-09-21T04:15:16;2.03;;;1.30;;
20118;SDS011;10220;42.716;23.306;2022-09-21T04:17:45;3.87;;;1.67;;
20118;SDS011;10220;42.716;23.306;2022-09-21T04:20:15;4.17;;;1.80;;
20118;SDS011;10220;42.716;23.306;2022-09-21T04:22:40;2.30;;;1.90;;
20118;SDS011;10220;42.716;23.306;2022-09-21T04:25:06;1.27;;;1.17;;
20118;SDS011;10220;42.716;23.306;2022-09-21T04:27:31;1.03;;;1.03;;
20118;SDS011;10220;42.716;23.306;2022-09-21T04:29:58;2.43;;;1.40;;
20118;SDS011;10220;42.716;23.306;2022-09-21T04:32:24;3.93;;;2.27;;
20118;SDS011;10220;42.716;23.306;2022-09-21T04:34:49;2.53;;;1.30;;
20118;SDS011;10220;42.716;23.306;2022-09-21T04:37:15;2.00;;;1.67;;
20118;SDS011;10220;42.716;23.306;2022-09-21T04:39:40;2.10;;;1.67;;
20118;SDS011;10220;42.716;23.306;2022-09-21T04:42:06;3.33;;;1.87;;
20118;SDS011;10220;42.716;23.306;2022-09-21T04:44:31;5.07;;;3.50;;
20118;SDS011;10220;42.716;23.306;2022-09-21T04:46:57;2.53;;;1.83;;
20118;SDS011;10220;42.716;23.306;2022-09-21T04:49:23;2.20;;;1.40;;
20118;SDS011;10220;42.716;23.306;2022-09-21T04:51:48;1.63;;;1.53;;
20118;SDS011;10220;42.716;23.306;2022-09-21T04:54:14;2.17;;;1.53;;
20118;SDS011;10220;42.716;23.306;2022-09-21T04:56:39;3.33;;;2.50;;
20118;SDS011;10220;42.716;23.306;2022-09-21T04:59:05;3.30;;;1.87;;
20118;SDS011;10220;42.716;23.306;2022-09-21T05:01:30;3.47;;;2.63;;
20118;SDS011;10220;42.716;23.306;2022-09-21T05:03:56;2.90;;;1.97;;
20118;SDS011;10220;42.716;23.306;2022-09-21T05:06:29;2.53;;;1.60;;
20118;SDS011;10220;42.716;23.306;2022-09-21T05:08:56;1.67;;;1.47;;
20118;SDS011;10220;42.716;23.306;2022-09-21T05:11:40;4.57;;;1.80;;
20118;SDS011;10220;42.716;23.306;2022-09-21T05:14:06;1.97;;;1.80;;
20118;SDS011;10220;42.716;23.306;2022-09-21T05:16:32;6.23;;;2.13;;
20118;SDS011;10220;42.716;23.306;2022-09-21T05:18:57;1.42;;;1.33;;
20118;SDS011;10220;42.716;23.306;2022-09-21T05:21:23;2.67;;;1.87;;
20118;SDS011;10220;42.716;23.306;2022-09-21T05:23:48;1.67;;;1.48;;
20118;SDS011;10220;42.716;23.306;2022-09-21T05:26:14;12.85;;;2.40;;
20118;SDS011;10220;42.716;23.306;2022-09-21T05:28:39;3.88;;;1.88;;
20118;SDS011;10220;42.716;23.306;2022-09-21T05:33:56;3.20;;;2.40;;
20118;SDS011;10220;42.716;23.306;2022-09-21T05:39:22;2.35;;;1.90;;
20118;SDS011;10220;42.716;23.306;2022-09-21T05:41:48;1.77;;;1.65;;
20118;SDS011;10220;42.716;23.306;2022-09-21T05:44:14;3.40;;;2.08;;
20118;SDS011;10220;42.716;23.306;2022-09-21T05:49:23;2.13;;;1.30;;
20118;SDS011;10220;42.716;23.306;2022-09-21T05:57:35;0.90;;;0.90;;
20118;SDS011;10220;42.716;23.306;2022-09-21T06:00:18;1.75;;;1.65;;
20118;SDS011;10220;42.716;23.306;2022-09-21T06:05:23;4.28;;;1.73;;
20118;SDS011;10220;42.716;23.306;2022-09-21T06:07:49;1.38;;;0.95;;
20118;SDS011;10220;42.716;23.306;2022-09-21T06:10:14;2.65;;;1.23;;
20118;SDS011;10220;42.716;23.306;2022-09-21T06:12:40;2.35;;;1.45;;
20118;SDS011;10220;42.716;23.306;2022-09-21T06:15:06;2.53;;;2.28;;
20118;SDS011;10220;42.716;23.306;2022-09-21T06:17:37;2.67;;;1.77;;
20118;SDS011;10220;42.716;23.306;2022-09-21T06:20:04;1.60;;;1.13;;
20118;SDS011;10220;42.716;23.306;2022-09-21T06:22:31;1.88;;;1.17;;
20118;SDS011;10220;42.716;23.306;2022-09-21T06:24:57;2.17;;;1.50;;
20118;SDS011;10220;42.716;23.306;2022-09-21T06:27:22;3.10;;;2.22;;
20118;SDS011;10220;42.716;23.306;2022-09-21T06:29:48;1.77;;;1.08;;
20118;SDS011;10220;42.716;23.306;2022-09-21T06:32:13;2.78;;;2.15;;
20118;SDS011;10220;42.716;23.306;2022-09-21T06:34:39;18.23;;;5.70;;
20118;SDS011;10220;42.716;23.306;2022-09-21T06:37:04;15.15;;;4.80;;
20118;SDS011;10220;42.716;23.306;2022-09-21T06:39:29;9.20;;;5.45;;
20118;SDS011;10220;42.716;23.306;2022-09-21T06:41:55;16.42;;;6.72;;
20118;SDS011;10220;42.716;23.306;2022-09-21T06:44:22;24.02;;;9.88;;
20118;SDS011;10220;42.716;23.306;2022-09-21T06:46:48;22.13;;;7.32;;
20118;SDS011;10220;42.716;23.306;2022-09-21T06:49:13;9.30;;;4.82;;
20118;SDS011;10220;42.716;23.306;2022-09-21T06:51:38;4.75;;;3.35;;
20118;SDS011;10220;42.716;23.306;2022-09-21T06:54:04;4.68;;;3.25;;
20118;SDS011;10220;42.716;23.306;2022-09-21T06:56:29;4.40;;;3.13;;
20118;SDS011;10220;42.716;23.306;2022-09-21T06:58:55;6.20;;;2.22;;
20118;SDS011;10220;42.716;23.306;2022-09-21T07:01:21;2.33;;;1.85;;
20118;SDS011;10220;42.716;23.306;2022-09-21T07:03:48;6.05;;;1.80;;
20118;SDS011;10220;42.716;23.306;2022-09-21T07:06:15;2.00;;;1.75;;
20118;SDS011;10220;42.716;23.306;2022-09-21T07:08:41;2.33;;;1.30;;
20118;SDS011;10220;42.716;23.306;2022-09-21T07:11:08;1.40;;;1.20;;
20118;SDS011;10220;42.716;23.306;2022-09-21T07:13:35;1.80;;;1.33;;
20118;SDS011;10220;42.716;23.306;2022-09-21T07:16:05;1.45;;;1.35;;
20118;SDS011;10220;42.716;23.306;2022-09-21T07:18:35;2.95;;;2.03;;
20118;SDS011;10220;42.716;23.306;2022-09-21T07:21:03;2.00;;;1.80;;
20118;SDS011;10220;42.716;23.306;2022-09-21T07:23:29;2.08;;;1.45;;
20118;SDS011;10220;42.716;23.306;2022-09-21T07:25:59;2.35;;;1.10;;
20118;SDS011;10220;42.716;23.306;2022-09-21T07:28:26;3.28;;;1.60;;
20118;SDS011;10220;42.716;23.306;2022-09-21T07:30:52;1.30;;;0.85;;
20118;SDS011;10220;42.716;23.306;2022-09-21T07:33:17;2.90;;;1.35;;
20118;SDS011;10220;42.716;23.306;2022-09-21T07:35:49;2.15;;;1.33;;
20118;SDS011;10220;42.716;23.306;2022-09-21T07:38:20;1.73;;;1.15;;
20118;SDS011;10220;42.716;23.306;2022-09-21T07:40:46;1.95;;;1.17;;
20118;SDS011;10220;42.716;23.306;2022-09-21T07:43:13;4.00;;;1.10;;
20118;SDS011;10220;42.716;23.306;2022-09-21T07:45:42;1.50;;;1.25;;
20118;SDS011;10220;42.716;23.306;2022-09-21T07:48:10;3.10;;;1.33;;
20118;SDS011;10220;42.716;23.306;2022-09-21T07:50:36;2.38;;;1.23;;
20118;SDS011;10220;42.716;23.306;2022-09-21T07:53:02;1.55;;;1.33;;
20118;SDS011;10220;42.716;23.306;2022-09-21T07:55:46;1.15;;;0.93;;
20118;SDS011;10220;42.716;23.306;2022-09-21T07:58:11;0.98;;;0.93;;
20118;SDS011;10220;42.716;23.306;2022-09-21T08:00:55;2.45;;;1.77;;
20118;SDS011;10220;42.716;23.306;2022-09-21T08:03:20;1.38;;;1.10;;
20118;SDS011;10220;42.716;23.306;2022-09-21T08:05:46;11.45;;;1.30;;
20118;SDS011;10220;42.716;23.306;2022-09-21T08:08:11;1.65;;;1.30;;
20118;SDS011;10220;42.716;23.306;2022-09-21T08:10:37;5.90;;;1.50;;
20118;SDS011;10220;42.716;23.306;2022-09-21T08:13:03;1.48;;;0.98;;
20118;SDS011;10220;42.716;23.306;2022-09-21T08:15:29;1.83;;;0.98;;
20118;SDS011;10220;42.716;23.306;2022-09-21T08:17:54;1.73;;;1.05;;
20118;SDS011;10220;42.716;23.306;2022-09-21T08:20:21;1.15;;;0.93;;
20118;SDS011;10220;42.716;23.306;2022-09-21T08:22:47;0.70;;;0.70;;
20118;SDS011;10220;42.716;23.306;2022-09-21T08:25:13;5.18;;;0.98;;
20118;SDS011;10220;42.716;23.306;2022-09-21T08:27:39;1.50;;;1.17;;
20118;SDS011;10220;42.716;23.306;2022-09-21T08:30:06;1.08;;;1.05;;
20118;SDS011;10220;42.716;23.306;2022-09-21T08:32:32;0.70;;;0.63;;
20118;SDS011;10220;42.716;23.306;2022-09-21T08:34:58;0.88;;;0.70;;
20118;SDS011;10220;42.716;23.306;2022-09-21T08:37:23;0.80;;;0.80;;
20118;SDS011;10220;42.716;23.306;2022-09-21T08:39:49;0.40;;;0.40;;
20118;SDS011;10220;42.716;23.306;2022-09-21T08:45:03;0.57;;;0.57;;
20118;SDS011;10220;42.716;23.306;2022-09-21T08:47:43;1.33;;;0.85;;
20118;SDS011;10220;42.716;23.306;2022-09-21T08:50:25;0.98;;;0.77;;
20118;SDS011;10220;42.716;23.306;2022-09-21T08:52:57;1.15;;;0.55;;
20118;SDS011;10220;42.716;23.306;2022-09-21T08:55:36;0.75;;;0.70;;
20118;SDS011;10220;42.716;23.306;2022-09-21T08:58:02;0.60;;;0.60;;
20118;SDS011;10220;42.716;23.306;2022-09-21T09:00:28;0.68;;;0.60;;
20118;SDS011;10220;42.716;23.306;2022-09-21T09:03:12;0.30;;;0.30;;
20118;SDS011;10220;42.716;23.306;2022-09-21T09:05:58;1.00;;;0.77;;
20118;SDS011;10220;42.716;23.306;2022-09-21T09:22:11;0.52;;;0.52;;
20118;SDS011;10220;42.716;23.306;2022-09-21T09:24:41;0.63;;;0.50;;
20118;SDS011;10220;42.716;23.306;2022-09-21T09:27:14;1.45;;;0.80;;
20118;SDS011;10220;42.716;23.306;2022-09-21T09:29:47;1.45;;;0.85;;
20118;SDS011;10220;42.716;23.306;2022-09-21T09:35:16;0.55;;;0.50;;
20118;SDS011;10220;42.716;23.306;2022-09-21T09:37:51;1.02;;;0.73;;
20118;SDS011;10220;42.716;23.306;2022-09-21T09:49:05;0.82;;;0.82;;
20118;SDS011;10220;42.716;23.306;2022-09-21T09:51:46;0.38;;;0.38;;
20118;SDS011;10220;42.716;23.306;2022-09-21T09:54:15;0.40;;;0.40;;
20118;SDS011;10220;42.716;23.306;2022-09-21T09:56:42;1.00;;;0.80;;
20118;SDS011;10220;42.716;23.306;2022-09-21T09:59:10;0.88;;;0.57;;
20118;SDS011;10220;42.716;23.306;2022-09-21T10:01:43;1.15;;;0.82;;
20118;SDS011;10220;42.716;23.306;2022-09-21T10:04:14;0.88;;;0.52;;
20118;SDS011;10220;42.716;23.306;2022-09-21T10:06:41;0.68;;;0.63;;
20118;SDS011;10220;42.716;23.306;2022-09-21T10:09:17;0.70;;;0.63;;
20118;SDS011;10220;42.716;23.306;2022-09-21T10:11:46;1.02;;;0.65;;
20118;SDS011;10220;42.716;23.306;2022-09-21T10:14:14;0.30;;;0.30;;
20118;SDS011;10220;42.716;23.306;2022-09-21T10:16:43;0.50;;;0.50;;
20118;SDS011;10220;42.716;23.306;2022-09-21T10:19:16;0.40;;;0.40;;
20118;SDS011;10220;42.716;23.306;2022-09-21T10:21:48;0.50;;;0.40;;
20118;SDS011;10220;42.716;23.306;2022-09-21T10:24:24;0.40;;;0.40;;
20118;SDS011;10220;42.716;23.306;2022-09-21T10:26:53;0.35;;;0.35;;
20118;SDS011;10220;42.716;23.306;2022-09-21T10:29:31;0.30;;;0.30;;
20118;SDS011;10220;42.716;23.306;2022-09-21T10:32:03;1.17;;;1.08;;
20118;SDS011;10220;42.716;23.306;2022-09-21T10:39:54;0.68;;;0.65;;
20118;SDS011;10220;42.716;23.306;2022-09-21T10:42:21;1.08;;;0.95;;
20118;SDS011;10220;42.716;23.306;2022-09-21T10:45:03;0.40;;;0.40;;
20118;SDS011;10220;42.716;23.306;2022-09-21T10:47:42;1.27;;;0.50;;
20118;SDS011;10220;42.716;23.306;2022-09-21T10:52:53;1.02;;;0.47;;
20118;SDS011;10220;42.716;23.306;2022-09-21T10:55:45;0.20;;;0.20;;
20118;SDS011;10220;42.716;23.306;2022-09-21T10:58:27;1.38;;;0.47;;
20118;SDS011;10220;42.716;23.306;2022-09-21T11:00:54;1.92;;;1.00;;
20118;SDS011;10220;42.716;23.306;2022-09-21T11:03:41;1.23;;;1.17;;
20118;SDS011;10220;42.716;23.306;2022-09-21T11:06:24;1.08;;;0.50;;
20118;SDS011;10220;42.716;23.306;2022-09-21T11:08:58;4.25;;;0.32;;
20118;SDS011;10220;42.716;23.306;2022-09-21T11:19:50;0.57;;;0.57;;
20118;SDS011;10220;42.716;23.306;2022-09-21T11:25:15;0.30;;;0.30;;
20118;SDS011;10220;42.716;23.306;2022-09-21T11:27:44;2.58;;;1.15;;
20118;SDS011;10220;42.716;23.306;2022-09-21T11:30:15;0.50;;;0.35;;
20118;SDS011;10220;42.716;23.306;2022-09-21T11:35:32;4.22;;;0.52;;
20118;SDS011;10220;42.716;23.306;2022-09-21T11:56:59;0.63;;;0.55;;
20118;SDS011;10220;42.716;23.306;2022-09-21T12:08:16;0.20;;;0.20;;
20118;SDS011;10220;42.716;23.306;2022-09-21T12:10:47;1.95;;;1.30;;
20118;SDS011;10220;42.716;23.306;2022-09-21T12:21:54;0.45;;;0.45;;
20118;SDS011;10220;42.716;23.306;2022-09-21T12:24:27;0.22;;;0.22;;
20118;SDS011;10220;42.716;23.306;2022-09-21T12:27:00;0.60;;;0.32;;
20118;SDS011;10220;42.716;23.306;2022-09-21T12:29:39;0.20;;;0.20;;
20118;SDS011;10220;42.716;23.306;2022-09-21T12:34:48;0.40;;;0.25;;
20118;SDS011;10220;42.716;23.306;2022-09-21T12:37:20;2.53;;;0.63;;
20118;SDS011;10220;42.716;23.306;2022-09-21T12:42:32;0.40;;;0.40;;
20118;SDS011;10220;42.716;23.306;2022-09-21T12:45:15;0.25;;;0.25;;
20118;SDS011;10220;42.716;23.306;2022-09-21T12:50:43;0.30;;;0.30;;
20118;SDS011;10220;42.716;23.306;2022-09-21T12:53:19;0.50;;;0.28;;
20118;SDS011;10220;42.716;23.306;2022-09-21T13:01:30;0.30;;;0.30;;
20118;SDS011;10220;42.716;23.306;2022-09-21T13:06:53;0.28;;;0.28;;
20118;SDS011;10220;42.716;23.306;2022-09-21T13:09:22;0.30;;;0.30;;
20118;SDS011;10220;42.716;23.306;2022-09-21T13:14:21;0.38;;;0.30;;
20118;SDS011;10220;42.716;23.306;2022-09-21T13:17:14;0.63;;;0.22;;
20118;SDS011;10220;42.716;23.306;2022-09-21T13:20:00;0.22;;;0.22;;
20118;SDS011;10220;42.716;23.306;2022-09-21T13:22:30;0.20;;;0.20;;
20118;SDS011;10220;42.716;23.306;2022-09-21T13:33:04;0.20;;;0.20;;
20118;SDS011;10220;42.716;23.306;2022-09-21T13:35:50;0.20;;;0.20;;
20118;SDS011;10220;42.716;23.306;2022-09-21T13:41:23;0.95;;;0.60;;
20118;SDS011;10220;42.716;23.306;2022-09-21T13:54:25;0.40;;;0.38;;
20118;SDS011;10220;42.716;23.306;2022-09-21T13:57:00;0.32;;;0.32;;
20118;SDS011;10220;42.716;23.306;2022-09-21T13:59:43;0.50;;;0.43;;
20118;SDS011;10220;42.716;23.306;2022-09-21T14:02:22;0.50;;;0.50;;
20118;SDS011;10220;42.716;23.306;2022-09-21T14:04:49;0.65;;;0.65;;
20118;SDS011;10220;42.716;23.306;2022-09-21T14:07:16;0.63;;;0.63;;
20118;SDS011;10220;42.716;23.306;2022-09-21T14:09:52;4.72;;;0.70;;
20118;SDS011;10220;42.716;23.306;2022-09-21T14:12:22;0.55;;;0.55;;
20118;SDS011;10220;42.716;23.306;2022-09-21T14:15:29;1.08;;;0.43;;
20118;SDS011;10220;42.716;23.306;2022-09-21T14:23:34;0.50;;;0.50;;
20118;SDS011;10220;42.716;23.306;2022-09-21T14:26:18;0.90;;;0.50;;
20118;SDS011;10220;42.716;23.306;2022-09-21T14:28:47;0.30;;;0.30;;
20118;SDS011;10220;42.716;23.306;2022-09-21T14:31:28;2.08;;;1.08;;
20118;SDS011;10220;42.716;23.306;2022-09-21T14:34:01;0.82;;;0.60;;
20118;SDS011;10220;42.716;23.306;2022-09-21T14:36:36;0.40;;;0.30;;
20118;SDS011;10220;42.716;23.306;2022-09-21T14:39:12;0.93;;;0.80;;
20118;SDS011;10220;42.716;23.306;2022-09-21T14:41:40;0.43;;;0.30;;
20118;SDS011;10220;42.716;23.306;2022-09-21T14:44:28;1.13;;;0.55;;
20118;SDS011;10220;42.716;23.306;2022-09-21T14:47:11;1.30;;;0.50;;
20118;SDS011;10220;42.716;23.306;2022-09-21T14:55:53;0.30;;;0.30;;
20118;SDS011;10220;42.716;23.306;2022-09-21T15:10:13;0.60;;;0.60;;
20118;SDS011;10220;42.716;23.306;2022-09-21T15:18:16;0.43;;;0.40;;
20118;SDS011;10220;42.716;23.306;2022-09-21T15:20:44;0.73;;;0.50;;
20118;SDS011;10220;42.716;23.306;2022-09-21T15:23:18;0.50;;;0.50;;
20118;SDS011;10220;42.716;23.306;2022-09-21T15:25:52;0.30;;;0.30;;
20118;SDS011;10220;42.716;23.306;2022-09-21T15:28:23;0.43;;;0.43;;
20118;SDS011;10220;42.716;23.306;2022-09-21T15:30:50;0.63;;;0.63;;
20118;SDS011;10220;42.716;23.306;2022-09-21T15:33:21;0.43;;;0.43;;
20118;SDS011;10220;42.716;23.306;2022-09-21T15:35:47;0.40;;;0.40;;
20118;SDS011;10220;42.716;23.306;2022-09-21T15:38:26;0.35;;;0.35;;
20118;SDS011;10220;42.716;23.306;2022-09-21T15:40:53;0.63;;;0.63;;
20118;SDS011;10220;42.716;23.306;2022-09-21T15:43:18;1.08;;;0.63;;
20118;SDS011;10220;42.716;23.306;2022-09-21T15:48:19;0.30;;;0.30;;
20118;SDS011;10220;42.716;23.306;2022-09-21T15:50:47;0.60;;;0.52;;
20118;SDS011;10220;42.716;23.306;2022-09-21T15:53:21;0.73;;;0.52;;
20118;SDS011;10220;42.716;23.306;2022-09-21T15:55:54;0.50;;;0.50;;
20118;SDS011;10220;42.716;23.306;2022-09-21T15:58:38;0.63;;;0.32;;
20118;SDS011;10220;42.716;23.306;2022-09-21T16:01:08;0.50;;;0.50;;
20118;SDS011;10220;42.716;23.306;2022-09-21T16:03:36;0.82;;;0.80;;
20118;SDS011;10220;42.716;23.306;2022-09-21T16:07:04;0.40;;;0.40;;
20118;SDS011;10220;42.716;23.306;2022-09-21T16:11:50;12.00;;;3.20;;
20118;SDS011;10220;42.716;23.306;2022-09-21T16:14:17;0.50;;;0.50;;
20118;SDS011;10220;42.716;23.306;2022-09-21T16:19:39;16.35;;;7.35;;
20118;SDS011;10220;42.716;23.306;2022-09-21T16:22:14;19.40;;;7.68;;
20118;SDS011;10220;42.716;23.306;2022-09-21T16:24:54;14.00;;;6.32;;
20118;SDS011;10220;42.716;23.306;2022-09-21T16:27:22;20.27;;;12.38;;
20118;SDS011;10220;42.716;23.306;2022-09-21T16:29:50;8.50;;;5.63;;
20118;SDS011;10220;42.716;23.306;2022-09-21T16:34:42;43.20;;;18.65;;
20118;SDS011;10220;42.716;23.306;2022-09-21T16:39:44;34.42;;;13.38;;
20118;SDS011;10220;42.716;23.306;2022-09-21T16:42:10;64.78;;;31.55;;
20118;SDS011;10220;42.716;23.306;2022-09-21T16:44:36;14.75;;;8.88;;
20118;SDS011;10220;42.716;23.306;2022-09-21T16:47:12;40.85;;;21.27;;
20118;SDS011;10220;42.716;23.306;2022-09-21T16:49:55;49.67;;;27.55;;
20118;SDS011;10220;42.716;23.306;2022-09-21T16:52:24;75.10;;;30.13;;
20118;SDS011;10220;42.716;23.306;2022-09-21T16:54:52;100.85;;;47.40;;
20118;SDS011;10220;42.716;23.306;2022-09-21T16:57:18;2.60;;;2.38;;
20118;SDS011;10220;42.716;23.306;2022-09-21T16:59:45;0.80;;;0.80;;
20118;SDS011;10220;42.716;23.306;2022-09-21T17:02:10;4.22;;;2.90;;
20118;SDS011;10220;42.716;23.306;2022-09-21T17:04:38;2.90;;;1.30;;
20118;SDS011;10220;42.716;23.306;2022-09-21T17:07:04;1.02;;;1.02;;
20118;SDS011;10220;42.716;23.306;2022-09-21T17:12:00;1.85;;;1.38;;
20118;SDS011;10220;42.716;23.306;2022-09-21T17:14:30;1.42;;;1.08;;
20118;SDS011;10220;42.716;23.306;2022-09-21T17:17:01;2.53;;;1.85;;
20118;SDS011;10220;42.716;23.306;2022-09-21T17:19:31;3.78;;;1.63;;
20118;SDS011;10220;42.716;23.306;2022-09-21T17:21:56;1.85;;;1.65;;
20118;SDS011;10220;42.716;23.306;2022-09-21T17:24:23;6.05;;;1.65;;
20118;SDS011;10220;42.716;23.306;2022-09-21T17:26:50;1.40;;;1.30;;
20118;SDS011;10220;42.716;23.306;2022-09-21T17:29:17;2.60;;;1.63;;
20118;SDS011;10220;42.716;23.306;2022-09-21T17:31:54;2.60;;;1.77;;
20118;SDS011;10220;42.716;23.306;2022-09-21T17:34:25;2.50;;;1.73;;
20118;SDS011;10220;42.716;23.306;2022-09-21T17:36:52;0.80;;;0.80;;
20118;SDS011;10220;42.716;23.306;2022-09-21T17:39:20;9.32;;;2.15;;
20118;SDS011;10220;42.716;23.306;2022-09-21T17:41:51;3.78;;;1.80;;
20118;SDS011;10220;42.716;23.306;2022-09-21T17:49:41;2.45;;;1.98;;
20118;SDS011;10220;42.716;23.306;2022-09-21T17:52:10;4.30;;;1.92;;
20118;SDS011;10220;42.716;23.306;2022-09-21T17:54:58;7.88;;;4.68;;
20118;SDS011;10220;42.716;23.306;2022-09-21T17:57:37;8.35;;;6.95;;
20118;SDS011;10220;42.716;23.306;2022-09-21T18:00:25;9.40;;;5.20;;
20118;SDS011;10220;42.716;23.306;2022-09-21T18:03:03;3.05;;;2.33;;
20118;SDS011;10220;42.716;23.306;2022-09-21T18:05:29;3.50;;;2.53;;
20118;SDS011;10220;42.716;23.306;2022-09-21T18:07:55;3.72;;;1.65;;
20118;SDS011;10220;42.716;23.306;2022-09-21T18:10:22;1.80;;;1.55;;
20118;SDS011;10220;42.716;23.306;2022-09-21T18:18:51;2.33;;;1.30;;
20118;SDS011;10220;42.716;23.306;2022-09-21T18:21:37;2.60;;;2.08;;
20118;SDS011;10220;42.716;23.306;2022-09-21T18:26:44;3.55;;;1.92;;
20118;SDS011;10220;42.716;23.306;2022-09-21T18:29:18;2.78;;;1.63;;
20118;SDS011;10220;42.716;23.306;2022-09-21T18:31:50;1.67;;;1.52;;
20118;SDS011;10220;42.716;23.306;2022-09-21T18:45:51;5.88;;;1.88;;
20118;SDS011;10220;42.716;23.306;2022-09-21T18:53:46;3.63;;;2.38;;